sensor_id;sensor_type;location;lat;lon;timestamp;temperature;humidity
12957;DHT22;6543;48.836;10.092;2023-06-04T00:00:12;14.90;94.70
12957;DHT22;6543;48.836;10.092;2023-06-04T00:02:40;15.10;93.80
12957;DHT22;6543;48.836;10.092;2023-06-04T00:05:08;14.90;94.30
12957;DHT22;6543;48.836;10.092;2023-06-04T00:07:35;14.80;94.90
12957;DHT22;6543;48.836;10.092;2023-06-04T00:10:04;15.40;95.00
12957;DHT22;6543;48.836;10.092;2023-06-04T00:12:31;14.70;94.70
12957;DHT22;6543;48.836;10.092;2023-06-04T00:14:58;15.20;96.10
12957;DHT22;6543;48.836;10.092;2023-06-04T00:17:26;15.00;95.80
12957;DHT22;6543;48.836;10.092;2023-06-04T00:19:54;15.10;95.60
12957;DHT22;6543;48.836;10.092;2023-06-04T00:22:21;14.70;94.40
12957;DHT22;6543;48.836;10.092;2023-06-04T00:24:49;14.80;93.50
12957;DHT22;6543;48.836;10.092;2023-06-04T00:27:16;14.70;93.60
12957;DHT22;6543;48.836;10.092;2023-06-04T00:29:43;14.70;93.70
12957;DHT22;6543;48.836;10.092;2023-06-04T00:32:10;14.90;93.40
12957;DHT22;6543;48.836;10.092;2023-06-04T00:34:37;14.80;93.90
12957;DHT22;6543;48.836;10.092;2023-06-04T00:37:06;14.70;93.20
12957;DHT22;6543;48.836;10.092;2023-06-04T00:39:33;14.90;93.60
12957;DHT22;6543;48.836;10.092;2023-06-04T00:42:01;15.60;93.40
12957;DHT22;6543;48.836;10.092;2023-06-04T00:44:28;14.90;93.40
12957;DHT22;6543;48.836;10.092;2023-06-04T00:46:56;14.70;92.40
12957;DHT22;6543;48.836;10.092;2023-06-04T00:49:23;15.40;92.60
12957;DHT22;6543;48.836;10.092;2023-06-04T00:51:50;15.50;92.70
12957;DHT22;6543;48.836;10.092;2023-06-04T00:54:19;14.80;92.50
12957;DHT22;6543;48.836;10.092;2023-06-04T00:56:48;14.60;92.50
12957;DHT22;6543;48.836;10.092;2023-06-04T00:59:16;13.00;92.20
12957;DHT22;6543;48.836;10.092;2023-06-04T01:01:53;14.60;93.10
12957;DHT22;6543;48.836;10.092;2023-06-04T01:04:27;15.30;93.10
12957;DHT22;6543;48.836;10.092;2023-06-04T01:06:57;14.50;93.90
12957;DHT22;6543;48.836;10.092;2023-06-04T01:09:26;14.50;93.50
12957;DHT22;6543;48.836;10.092;2023-06-04T01:11:57;14.40;93.70
12957;DHT22;6543;48.836;10.092;2023-06-04T01:14:24;14.30;93.90
12957;DHT22;6543;48.836;10.092;2023-06-04T01:16:56;14.30;95.20
12957;DHT22;6543;48.836;10.092;2023-06-04T01:20:06;14.20;97.10
12957;DHT22;6543;48.836;10.092;2023-06-04T01:22:43;14.00;97.40
12957;DHT22;6543;48.836;10.092;2023-06-04T01:25:14;13.80;98.20
12957;DHT22;6543;48.836;10.092;2023-06-04T01:27:47;13.60;98.60
12957;DHT22;6543;48.836;10.092;2023-06-04T01:30:16;13.80;99.30
12957;DHT22;6543;48.836;10.092;2023-06-04T01:32:43;13.40;99.70
12957;DHT22;6543;48.836;10.092;2023-06-04T01:35:12;13.30;99.90
12957;DHT22;6543;48.836;10.092;2023-06-04T01:37:39;13.20;99.90
12957;DHT22;6543;48.836;10.092;2023-06-04T01:40:07;13.30;99.90
12957;DHT22;6543;48.836;10.092;2023-06-04T01:42:37;13.30;99.90
12957;DHT22;6543;48.836;10.092;2023-06-04T01:45:05;13.20;99.90
12957;DHT22;6543;48.836;10.092;2023-06-04T01:47:32;13.10;99.90
12957;DHT22;6543;48.836;10.092;2023-06-04T01:49:59;13.20;99.90
12957;DHT22;6543;48.836;10.092;2023-06-04T01:52:29;13.10;99.90
12957;DHT22;6543;48.836;10.092;2023-06-04T01:54:56;13.20;99.90
12957;DHT22;6543;48.836;10.092;2023-06-04T01:57:24;14.00;99.90
12957;DHT22;6543;48.836;10.092;2023-06-04T01:59:53;12.80;99.90
12957;DHT22;6543;48.836;10.092;2023-06-04T02:02:23;12.80;99.90
12957;DHT22;6543;48.836;10.092;2023-06-04T02:04:50;12.80;99.90
12957;DHT22;6543;48.836;10.092;2023-06-04T02:07:20;12.80;99.90
12957;DHT22;6543;48.836;10.092;2023-06-04T02:09:48;13.60;99.90
12957;DHT22;6543;48.836;10.092;2023-06-04T02:12:17;12.70;99.90
12957;DHT22;6543;48.836;10.092;2023-06-04T02:14:44;12.50;99.90
12957;DHT22;6543;48.836;10.092;2023-06-04T02:17:14;12.70;99.90
12957;DHT22;6543;48.836;10.092;2023-06-04T02:19:45;12.60;99.90
12957;DHT22;6543;48.836;10.092;2023-06-04T02:22:15;12.50;99.90
12957;DHT22;6543;48.836;10.092;2023-06-04T02:24:42;13.10;99.90
12957;DHT22;6543;48.836;10.092;2023-06-04T02:27:09;12.50;99.90
12957;DHT22;6543;48.836;10.092;2023-06-04T02:29:37;13.00;99.90
12957;DHT22;6543;48.836;10.092;2023-06-04T02:32:05;13.60;99.90
12957;DHT22;6543;48.836;10.092;2023-06-04T02:34:34;12.20;99.90
12957;DHT22;6543;48.836;10.092;2023-06-04T02:37:01;12.10;99.90
12957;DHT22;6543;48.836;10.092;2023-06-04T02:39:28;12.80;99.90
12957;DHT22;6543;48.836;10.092;2023-06-04T02:41:55;10.90;99.90
12957;DHT22;6543;48.836;10.092;2023-06-04T02:44:25;12.90;99.90
12957;DHT22;6543;48.836;10.092;2023-06-04T02:46:52;12.10;99.90
12957;DHT22;6543;48.836;10.092;2023-06-04T02:49:19;13.00;99.90
12957;DHT22;6543;48.836;10.092;2023-06-04T02:51:47;12.10;99.90
12957;DHT22;6543;48.836;10.092;2023-06-04T02:54:15;12.80;99.90
12957;DHT22;6543;48.836;10.092;2023-06-04T02:56:45;12.30;99.90
12957;DHT22;6543;48.836;10.092;2023-06-04T02:59:16;13.50;99.90
12957;DHT22;6543;48.836;10.092;2023-06-04T03:01:43;11.80;99.90
12957;DHT22;6543;48.836;10.092;2023-06-04T03:04:11;11.80;99.90
12957;DHT22;6543;48.836;10.092;2023-06-04T03:06:41;11.80;99.90
12957;DHT22;6543;48.836;10.092;2023-06-04T03:09:11;11.50;99.90
12957;DHT22;6543;48.836;10.092;2023-06-04T03:11:40;11.50;99.90
12957;DHT22;6543;48.836;10.092;2023-06-04T03:14:10;11.90;99.90
12957;DHT22;6543;48.836;10.092;2023-06-04T03:16:37;11.40;99.90
12957;DHT22;6543;48.836;10.092;2023-06-04T03:19:08;11.50;99.90
12957;DHT22;6543;48.836;10.092;2023-06-04T03:21:37;11.30;99.90
12957;DHT22;6543;48.836;10.092;2023-06-04T03:24:07;12.10;99.90
12957;DHT22;6543;48.836;10.092;2023-06-04T03:26:35;11.10;99.90
12957;DHT22;6543;48.836;10.092;2023-06-04T03:29:04;11.30;99.90
12957;DHT22;6543;48.836;10.092;2023-06-04T03:31:31;11.30;99.90
12957;DHT22;6543;48.836;10.092;2023-06-04T03:33:59;11.80;99.90
12957;DHT22;6543;48.836;10.092;2023-06-04T03:36:26;11.40;99.90
12957;DHT22;6543;48.836;10.092;2023-06-04T03:38:57;11.80;99.90
12957;DHT22;6543;48.836;10.092;2023-06-04T03:41:24;11.20;99.90
12957;DHT22;6543;48.836;10.092;2023-06-04T03:43:55;11.60;99.90
12957;DHT22;6543;48.836;10.092;2023-06-04T03:46:22;11.80;99.90
12957;DHT22;6543;48.836;10.092;2023-06-04T03:48:50;11.10;99.90
12957;DHT22;6543;48.836;10.092;2023-06-04T03:51:20;11.50;99.90
12957;DHT22;6543;48.836;10.092;2023-06-04T03:53:47;11.20;99.90
12957;DHT22;6543;48.836;10.092;2023-06-04T03:56:14;11.30;99.90
12957;DHT22;6543;48.836;10.092;2023-06-04T03:58:42;11.40;99.90
12957;DHT22;6543;48.836;10.092;2023-06-04T04:01:10;11.40;99.90
12957;DHT22;6543;48.836;10.092;2023-06-04T04:03:37;11.50;99.90
12957;DHT22;6543;48.836;10.092;2023-06-04T04:06:05;11.50;99.90
12957;DHT22;6543;48.836;10.092;2023-06-04T04:08:34;11.80;99.90
12957;DHT22;6543;48.836;10.092;2023-06-04T04:11:03;11.50;99.90
12957;DHT22;6543;48.836;10.092;2023-06-04T04:13:32;11.60;99.90
12957;DHT22;6543;48.836;10.092;2023-06-04T04:15:59;11.80;99.90
12957;DHT22;6543;48.836;10.092;2023-06-04T04:18:32;12.00;99.90
12957;DHT22;6543;48.836;10.092;2023-06-04T04:21:00;12.50;99.90
12957;DHT22;6543;48.836;10.092;2023-06-04T04:23:28;12.10;99.90
12957;DHT22;6543;48.836;10.092;2023-06-04T04:25:58;13.10;99.90
12957;DHT22;6543;48.836;10.092;2023-06-04T04:28:25;12.20;99.90
12957;DHT22;6543;48.836;10.092;2023-06-04T04:30:54;12.30;99.90
12957;DHT22;6543;48.836;10.092;2023-06-04T04:33:22;12.80;99.90
12957;DHT22;6543;48.836;10.092;2023-06-04T04:35:51;12.20;99.90
12957;DHT22;6543;48.836;10.092;2023-06-04T04:38:19;13.70;99.90
12957;DHT22;6543;48.836;10.092;2023-06-04T04:40:49;12.50;99.90
12957;DHT22;6543;48.836;10.092;2023-06-04T04:43:27;12.50;99.90
12957;DHT22;6543;48.836;10.092;2023-06-04T04:45:55;12.50;99.90
12957;DHT22;6543;48.836;10.092;2023-06-04T04:48:23;12.40;99.90
12957;DHT22;6543;48.836;10.092;2023-06-04T04:50:52;12.30;99.90
12957;DHT22;6543;48.836;10.092;2023-06-04T04:53:19;12.90;99.90
12957;DHT22;6543;48.836;10.092;2023-06-04T04:55:47;13.40;99.90
12957;DHT22;6543;48.836;10.092;2023-06-04T04:58:14;13.20;99.90
12957;DHT22;6543;48.836;10.092;2023-06-04T05:00:44;13.00;99.90
12957;DHT22;6543;48.836;10.092;2023-06-04T05:03:13;13.30;99.90
12957;DHT22;6543;48.836;10.092;2023-06-04T05:05:40;13.50;99.90
12957;DHT22;6543;48.836;10.092;2023-06-04T05:08:09;14.30;99.90
12957;DHT22;6543;48.836;10.092;2023-06-04T05:10:36;14.10;99.90
12957;DHT22;6543;48.836;10.092;2023-06-04T05:13:03;14.00;99.90
12957;DHT22;6543;48.836;10.092;2023-06-04T05:15:31;14.00;99.90
12957;DHT22;6543;48.836;10.092;2023-06-04T05:17:59;14.30;99.90
12957;DHT22;6543;48.836;10.092;2023-06-04T05:20:29;14.20;99.90
12957;DHT22;6543;48.836;10.092;2023-06-04T05:22:56;14.20;99.90
12957;DHT22;6543;48.836;10.092;2023-06-04T05:25:25;14.50;99.90
12957;DHT22;6543;48.836;10.092;2023-06-04T05:27:55;14.40;99.90
12957;DHT22;6543;48.836;10.092;2023-06-04T05:30:22;14.40;99.90
12957;DHT22;6543;48.836;10.092;2023-06-04T05:32:49;14.20;99.90
12957;DHT22;6543;48.836;10.092;2023-06-04T05:35:19;14.30;99.90
12957;DHT22;6543;48.836;10.092;2023-06-04T05:37:46;14.30;99.90
12957;DHT22;6543;48.836;10.092;2023-06-04T05:40:19;14.20;99.90
12957;DHT22;6543;48.836;10.092;2023-06-04T05:42:48;14.30;99.90
12957;DHT22;6543;48.836;10.092;2023-06-04T05:45:15;15.10;99.90
12957;DHT22;6543;48.836;10.092;2023-06-04T05:47:42;14.50;99.90
12957;DHT22;6543;48.836;10.092;2023-06-04T05:50:10;14.60;99.90
12957;DHT22;6543;48.836;10.092;2023-06-04T05:52:37;14.90;99.90
12957;DHT22;6543;48.836;10.092;2023-06-04T05:55:05;14.80;99.90
12957;DHT22;6543;48.836;10.092;2023-06-04T05:57:34;14.90;99.90
12957;DHT22;6543;48.836;10.092;2023-06-04T06:00:03;15.00;99.90
12957;DHT22;6543;48.836;10.092;2023-06-04T06:02:34;15.20;99.90
12957;DHT22;6543;48.836;10.092;2023-06-04T06:05:01;15.50;99.90
12957;DHT22;6543;48.836;10.092;2023-06-04T06:07:28;15.90;99.90
12957;DHT22;6543;48.836;10.092;2023-06-04T06:09:55;15.80;99.90
12957;DHT22;6543;48.836;10.092;2023-06-04T06:12:22;16.00;99.60
12957;DHT22;6543;48.836;10.092;2023-06-04T06:14:51;16.00;99.40
12957;DHT22;6543;48.836;10.092;2023-06-04T06:17:20;16.20;99.90
12957;DHT22;6543;48.836;10.092;2023-06-04T06:19:49;16.20;99.60
12957;DHT22;6543;48.836;10.092;2023-06-04T06:22:17;16.10;99.70
12957;DHT22;6543;48.836;10.092;2023-06-04T06:24:44;16.00;99.60
12957;DHT22;6543;48.836;10.092;2023-06-04T06:27:14;16.40;99.80
12957;DHT22;6543;48.836;10.092;2023-06-04T06:29:41;16.30;99.60
12957;DHT22;6543;48.836;10.092;2023-06-04T06:32:09;17.20;99.50
12957;DHT22;6543;48.836;10.092;2023-06-04T06:34:40;16.60;98.80
12957;DHT22;6543;48.836;10.092;2023-06-04T06:37:07;17.10;98.50
12957;DHT22;6543;48.836;10.092;2023-06-04T06:39:34;17.20;96.40
12957;DHT22;6543;48.836;10.092;2023-06-04T06:42:03;17.30;96.30
12957;DHT22;6543;48.836;10.092;2023-06-04T06:44:30;17.20;95.70
12957;DHT22;6543;48.836;10.092;2023-06-04T06:46:57;17.70;95.80
12957;DHT22;6543;48.836;10.092;2023-06-04T06:49:24;17.80;95.20
12957;DHT22;6543;48.836;10.092;2023-06-04T06:51:55;17.70;95.00
12957;DHT22;6543;48.836;10.092;2023-06-04T06:54:22;17.40;94.30
12957;DHT22;6543;48.836;10.092;2023-06-04T06:56:49;18.20;93.90
12957;DHT22;6543;48.836;10.092;2023-06-04T06:59:16;18.20;93.80
12957;DHT22;6543;48.836;10.092;2023-06-04T07:01:43;18.40;94.00
12957;DHT22;6543;48.836;10.092;2023-06-04T07:04:10;18.70;93.30
12957;DHT22;6543;48.836;10.092;2023-06-04T07:06:37;18.50;93.10
12957;DHT22;6543;48.836;10.092;2023-06-04T07:09:05;18.60;93.20
12957;DHT22;6543;48.836;10.092;2023-06-04T07:11:32;18.50;93.40
12957;DHT22;6543;48.836;10.092;2023-06-04T07:13:59;18.70;93.00
12957;DHT22;6543;48.836;10.092;2023-06-04T07:16:27;18.70;92.60
12957;DHT22;6543;48.836;10.092;2023-06-04T07:18:54;19.20;92.70
12957;DHT22;6543;48.836;10.092;2023-06-04T07:21:21;18.90;92.50
12957;DHT22;6543;48.836;10.092;2023-06-04T07:23:49;19.00;92.50
12957;DHT22;6543;48.836;10.092;2023-06-04T07:26:18;18.90;92.70
12957;DHT22;6543;48.836;10.092;2023-06-04T07:28:44;19.20;92.30
12957;DHT22;6543;48.836;10.092;2023-06-04T07:31:15;19.20;92.40
12957;DHT22;6543;48.836;10.092;2023-06-04T07:33:42;19.40;92.30
12957;DHT22;6543;48.836;10.092;2023-06-04T07:36:10;19.40;92.30
12957;DHT22;6543;48.836;10.092;2023-06-04T07:38:37;20.00;92.40
12957;DHT22;6543;48.836;10.092;2023-06-04T07:41:03;19.60;92.10
12957;DHT22;6543;48.836;10.092;2023-06-04T07:43:33;19.50;92.30
12957;DHT22;6543;48.836;10.092;2023-06-04T07:46:00;19.60;92.20
12957;DHT22;6543;48.836;10.092;2023-06-04T07:48:27;19.80;92.20
12957;DHT22;6543;48.836;10.092;2023-06-04T07:50:56;20.10;91.90
12957;DHT22;6543;48.836;10.092;2023-06-04T07:53:23;20.30;91.80
12957;DHT22;6543;48.836;10.092;2023-06-04T07:55:50;20.50;91.90
12957;DHT22;6543;48.836;10.092;2023-06-04T07:58:17;20.10;91.90
12957;DHT22;6543;48.836;10.092;2023-06-04T08:00:45;20.20;91.90
12957;DHT22;6543;48.836;10.092;2023-06-04T08:03:12;20.20;91.80
12957;DHT22;6543;48.836;10.092;2023-06-04T08:05:40;20.40;91.80
12957;DHT22;6543;48.836;10.092;2023-06-04T08:08:08;20.20;91.70
12957;DHT22;6543;48.836;10.092;2023-06-04T08:10:35;20.20;91.40
12957;DHT22;6543;48.836;10.092;2023-06-04T08:13:02;20.30;91.20
12957;DHT22;6543;48.836;10.092;2023-06-04T08:15:29;20.60;91.40
12957;DHT22;6543;48.836;10.092;2023-06-04T08:17:57;20.70;91.20
12957;DHT22;6543;48.836;10.092;2023-06-04T08:20:24;20.60;90.10
12957;DHT22;6543;48.836;10.092;2023-06-04T08:22:51;20.50;90.60
12957;DHT22;6543;48.836;10.092;2023-06-04T08:25:18;20.80;90.50
12957;DHT22;6543;48.836;10.092;2023-06-04T08:27:44;20.80;88.90
12957;DHT22;6543;48.836;10.092;2023-06-04T08:30:11;20.90;88.90
12957;DHT22;6543;48.836;10.092;2023-06-04T08:32:38;20.60;87.10
12957;DHT22;6543;48.836;10.092;2023-06-04T08:35:08;20.80;88.30
12957;DHT22;6543;48.836;10.092;2023-06-04T08:37:35;20.70;88.50
12957;DHT22;6543;48.836;10.092;2023-06-04T08:40:03;20.90;88.10
12957;DHT22;6543;48.836;10.092;2023-06-04T08:42:38;20.90;88.90
12957;DHT22;6543;48.836;10.092;2023-06-04T08:45:10;21.20;88.60
12957;DHT22;6543;48.836;10.092;2023-06-04T08:47:38;20.80;89.20
12957;DHT22;6543;48.836;10.092;2023-06-04T08:50:09;20.70;89.10
12957;DHT22;6543;48.836;10.092;2023-06-04T08:52:37;20.60;86.00
12957;DHT22;6543;48.836;10.092;2023-06-04T08:55:05;20.80;86.90
12957;DHT22;6543;48.836;10.092;2023-06-04T08:57:32;20.80;85.40
12957;DHT22;6543;48.836;10.092;2023-06-04T09:00:00;20.70;87.00
12957;DHT22;6543;48.836;10.092;2023-06-04T09:02:29;20.80;88.50
12957;DHT22;6543;48.836;10.092;2023-06-04T09:04:56;21.00;86.90
12957;DHT22;6543;48.836;10.092;2023-06-04T09:07:31;21.50;86.20
12957;DHT22;6543;48.836;10.092;2023-06-04T09:09:58;21.70;86.20
12957;DHT22;6543;48.836;10.092;2023-06-04T09:12:27;21.80;86.00
12957;DHT22;6543;48.836;10.092;2023-06-04T09:14:54;21.90;85.40
12957;DHT22;6543;48.836;10.092;2023-06-04T09:17:21;21.90;85.60
12957;DHT22;6543;48.836;10.092;2023-06-04T09:19:48;21.40;86.30
12957;DHT22;6543;48.836;10.092;2023-06-04T09:22:16;21.60;86.50
12957;DHT22;6543;48.836;10.092;2023-06-04T09:24:46;21.80;85.70
12957;DHT22;6543;48.836;10.092;2023-06-04T09:27:14;21.40;85.70
12957;DHT22;6543;48.836;10.092;2023-06-04T09:29:49;21.50;85.90
12957;DHT22;6543;48.836;10.092;2023-06-04T09:32:21;21.80;85.60
12957;DHT22;6543;48.836;10.092;2023-06-04T09:34:48;22.00;85.30
12957;DHT22;6543;48.836;10.092;2023-06-04T09:37:15;22.00;84.50
12957;DHT22;6543;48.836;10.092;2023-06-04T09:39:52;21.90;84.60
12957;DHT22;6543;48.836;10.092;2023-06-04T09:42:19;21.80;85.30
12957;DHT22;6543;48.836;10.092;2023-06-04T09:44:46;21.70;84.80
12957;DHT22;6543;48.836;10.092;2023-06-04T09:47:13;21.70;85.60
12957;DHT22;6543;48.836;10.092;2023-06-04T09:49:41;21.50;85.20
12957;DHT22;6543;48.836;10.092;2023-06-04T09:52:08;21.50;85.50
12957;DHT22;6543;48.836;10.092;2023-06-04T09:54:36;21.40;84.70
12957;DHT22;6543;48.836;10.092;2023-06-04T09:57:13;21.20;85.20
12957;DHT22;6543;48.836;10.092;2023-06-04T09:59:43;21.40;85.00
12957;DHT22;6543;48.836;10.092;2023-06-04T10:02:11;21.70;84.20
12957;DHT22;6543;48.836;10.092;2023-06-04T10:04:41;21.60;84.70
12957;DHT22;6543;48.836;10.092;2023-06-04T10:07:09;22.20;83.50
12957;DHT22;6543;48.836;10.092;2023-06-04T10:09:39;22.50;83.40
12957;DHT22;6543;48.836;10.092;2023-06-04T10:12:13;22.10;83.00
12957;DHT22;6543;48.836;10.092;2023-06-04T10:14:45;21.90;83.90
12957;DHT22;6543;48.836;10.092;2023-06-04T10:17:15;22.30;83.80
12957;DHT22;6543;48.836;10.092;2023-06-04T10:19:44;21.90;83.20
12957;DHT22;6543;48.836;10.092;2023-06-04T10:22:11;22.30;82.90
12957;DHT22;6543;48.836;10.092;2023-06-04T10:24:38;22.30;82.50
12957;DHT22;6543;48.836;10.092;2023-06-04T10:27:06;22.10;83.30
12957;DHT22;6543;48.836;10.092;2023-06-04T10:29:38;22.40;83.50
12957;DHT22;6543;48.836;10.092;2023-06-04T10:32:05;22.40;83.60
12957;DHT22;6543;48.836;10.092;2023-06-04T10:34:32;22.10;82.70
12957;DHT22;6543;48.836;10.092;2023-06-04T10:36:59;22.30;83.40
12957;DHT22;6543;48.836;10.092;2023-06-04T10:39:26;22.20;83.80
12957;DHT22;6543;48.836;10.092;2023-06-04T10:41:58;21.90;81.90
12957;DHT22;6543;48.836;10.092;2023-06-04T10:44:26;22.20;83.50
12957;DHT22;6543;48.836;10.092;2023-06-04T10:46:54;22.20;82.40
12957;DHT22;6543;48.836;10.092;2023-06-04T10:49:27;22.10;81.60
12957;DHT22;6543;48.836;10.092;2023-06-04T10:51:55;22.40;81.30
12957;DHT22;6543;48.836;10.092;2023-06-04T10:54:23;22.60;81.10
12957;DHT22;6543;48.836;10.092;2023-06-04T10:56:51;22.40;82.80
12957;DHT22;6543;48.836;10.092;2023-06-04T10:59:18;21.80;82.40
12957;DHT22;6543;48.836;10.092;2023-06-04T11:01:46;21.80;81.90
12957;DHT22;6543;48.836;10.092;2023-06-04T11:04:21;21.60;82.40
12957;DHT22;6543;48.836;10.092;2023-06-04T11:06:55;21.60;82.90
12957;DHT22;6543;48.836;10.092;2023-06-04T11:09:27;21.60;81.40
12957;DHT22;6543;48.836;10.092;2023-06-04T11:11:57;21.80;81.20
12957;DHT22;6543;48.836;10.092;2023-06-04T11:14:24;21.90;81.10
12957;DHT22;6543;48.836;10.092;2023-06-04T11:16:51;21.80;80.80
12957;DHT22;6543;48.836;10.092;2023-06-04T11:19:18;22.20;81.10
12957;DHT22;6543;48.836;10.092;2023-06-04T11:21:47;22.40;81.10
12957;DHT22;6543;48.836;10.092;2023-06-04T11:24:15;22.80;80.90
12957;DHT22;6543;48.836;10.092;2023-06-04T11:26:42;22.90;80.60
12957;DHT22;6543;48.836;10.092;2023-06-04T11:29:11;22.50;80.30
12957;DHT22;6543;48.836;10.092;2023-06-04T11:31:42;22.20;80.50
12957;DHT22;6543;48.836;10.092;2023-06-04T11:34:09;22.10;80.60
12957;DHT22;6543;48.836;10.092;2023-06-04T11:36:38;22.50;80.70
12957;DHT22;6543;48.836;10.092;2023-06-04T11:39:06;22.60;80.10
12957;DHT22;6543;48.836;10.092;2023-06-04T11:41:35;22.50;78.40
12957;DHT22;6543;48.836;10.092;2023-06-04T11:44:04;22.50;77.40
12957;DHT22;6543;48.836;10.092;2023-06-04T11:46:32;22.10;77.80
12957;DHT22;6543;48.836;10.092;2023-06-04T11:48:59;22.10;78.60
12957;DHT22;6543;48.836;10.092;2023-06-04T11:51:26;22.20;79.00
12957;DHT22;6543;48.836;10.092;2023-06-04T11:53:53;22.10;78.90
12957;DHT22;6543;48.836;10.092;2023-06-04T11:56:24;22.50;78.60
12957;DHT22;6543;48.836;10.092;2023-06-04T11:58:53;22.50;78.10
12957;DHT22;6543;48.836;10.092;2023-06-04T12:01:20;22.80;77.60
12957;DHT22;6543;48.836;10.092;2023-06-04T12:03:48;23.30;78.00
12957;DHT22;6543;48.836;10.092;2023-06-04T12:06:16;23.40;77.90
12957;DHT22;6543;48.836;10.092;2023-06-04T12:08:48;23.50;77.50
12957;DHT22;6543;48.836;10.092;2023-06-04T12:11:27;23.20;75.80
12957;DHT22;6543;48.836;10.092;2023-06-04T12:13:55;23.30;76.20
12957;DHT22;6543;48.836;10.092;2023-06-04T12:16:22;23.00;76.30
12957;DHT22;6543;48.836;10.092;2023-06-04T12:18:49;23.00;76.20
12957;DHT22;6543;48.836;10.092;2023-06-04T12:21:24;23.10;76.10
12957;DHT22;6543;48.836;10.092;2023-06-04T12:23:54;22.80;75.10
12957;DHT22;6543;48.836;10.092;2023-06-04T12:26:22;22.80;75.60
12957;DHT22;6543;48.836;10.092;2023-06-04T12:29:02;22.90;74.60
12957;DHT22;6543;48.836;10.092;2023-06-04T12:31:33;23.20;73.80
12957;DHT22;6543;48.836;10.092;2023-06-04T12:34:01;23.20;73.20
12957;DHT22;6543;48.836;10.092;2023-06-04T12:36:28;22.70;74.00
12957;DHT22;6543;48.836;10.092;2023-06-04T12:38:58;22.80;74.20
12957;DHT22;6543;48.836;10.092;2023-06-04T12:41:26;22.90;73.50
12957;DHT22;6543;48.836;10.092;2023-06-04T12:43:53;22.70;72.10
12957;DHT22;6543;48.836;10.092;2023-06-04T12:46:22;22.80;71.70
12957;DHT22;6543;48.836;10.092;2023-06-04T12:48:50;23.00;70.30
12957;DHT22;6543;48.836;10.092;2023-06-04T12:51:17;22.80;72.40
12957;DHT22;6543;48.836;10.092;2023-06-04T12:53:44;22.80;74.50
12957;DHT22;6543;48.836;10.092;2023-06-04T12:56:12;23.00;75.10
12957;DHT22;6543;48.836;10.092;2023-06-04T12:58:39;22.90;75.50
12957;DHT22;6543;48.836;10.092;2023-06-04T13:01:06;22.80;75.80
12957;DHT22;6543;48.836;10.092;2023-06-04T13:03:37;23.00;76.60
12957;DHT22;6543;48.836;10.092;2023-06-04T13:06:04;23.80;74.80
12957;DHT22;6543;48.836;10.092;2023-06-04T13:08:31;23.80;73.80
12957;DHT22;6543;48.836;10.092;2023-06-04T13:10:58;23.50;74.30
12957;DHT22;6543;48.836;10.092;2023-06-04T13:13:26;23.30;74.10
12957;DHT22;6543;48.836;10.092;2023-06-04T13:15:53;22.80;74.30
12957;DHT22;6543;48.836;10.092;2023-06-04T13:18:20;23.00;74.60
12957;DHT22;6543;48.836;10.092;2023-06-04T13:20:49;23.10;74.60
12957;DHT22;6543;48.836;10.092;2023-06-04T13:23:16;23.00;74.10
12957;DHT22;6543;48.836;10.092;2023-06-04T13:25:42;23.40;74.20
12957;DHT22;6543;48.836;10.092;2023-06-04T13:28:09;23.70;74.10
12957;DHT22;6543;48.836;10.092;2023-06-04T13:30:37;24.00;73.00
12957;DHT22;6543;48.836;10.092;2023-06-04T13:33:04;24.20;72.40
12957;DHT22;6543;48.836;10.092;2023-06-04T13:35:31;24.20;72.20
12957;DHT22;6543;48.836;10.092;2023-06-04T13:38:00;24.50;71.90
12957;DHT22;6543;48.836;10.092;2023-06-04T13:40:26;24.20;73.10
12957;DHT22;6543;48.836;10.092;2023-06-04T13:42:53;22.50;72.70
12957;DHT22;6543;48.836;10.092;2023-06-04T13:45:20;23.80;73.60
12957;DHT22;6543;48.836;10.092;2023-06-04T13:47:47;24.20;73.50
12957;DHT22;6543;48.836;10.092;2023-06-04T13:50:14;23.90;73.60
12957;DHT22;6543;48.836;10.092;2023-06-04T13:52:41;23.40;72.90
12957;DHT22;6543;48.836;10.092;2023-06-04T13:55:11;23.50;73.80
12957;DHT22;6543;48.836;10.092;2023-06-04T13:57:38;23.50;73.50
12957;DHT22;6543;48.836;10.092;2023-06-04T14:00:06;23.60;72.60
12957;DHT22;6543;48.836;10.092;2023-06-04T14:02:33;23.80;71.80
12957;DHT22;6543;48.836;10.092;2023-06-04T14:05:00;23.90;70.70
12957;DHT22;6543;48.836;10.092;2023-06-04T14:07:28;23.60;71.70
12957;DHT22;6543;48.836;10.092;2023-06-04T14:09:55;23.90;71.60
12957;DHT22;6543;48.836;10.092;2023-06-04T14:12:24;24.60;71.10
12957;DHT22;6543;48.836;10.092;2023-06-04T14:14:51;25.00;70.50
12957;DHT22;6543;48.836;10.092;2023-06-04T14:17:18;25.10;68.90
12957;DHT22;6543;48.836;10.092;2023-06-04T14:19:45;25.10;68.60
12957;DHT22;6543;48.836;10.092;2023-06-04T14:22:12;25.30;68.70
12957;DHT22;6543;48.836;10.092;2023-06-04T14:24:40;25.70;68.80
12957;DHT22;6543;48.836;10.092;2023-06-04T14:27:07;25.90;68.90
12957;DHT22;6543;48.836;10.092;2023-06-04T14:29:36;25.30;69.80
12957;DHT22;6543;48.836;10.092;2023-06-04T14:32:03;24.90;70.40
12957;DHT22;6543;48.836;10.092;2023-06-04T14:34:30;24.20;71.10
12957;DHT22;6543;48.836;10.092;2023-06-04T14:36:58;24.20;71.20
12957;DHT22;6543;48.836;10.092;2023-06-04T14:39:26;24.10;71.10
12957;DHT22;6543;48.836;10.092;2023-06-04T14:41:53;23.90;70.90
12957;DHT22;6543;48.836;10.092;2023-06-04T14:44:20;24.80;70.70
12957;DHT22;6543;48.836;10.092;2023-06-04T14:46:50;25.60;66.10
12957;DHT22;6543;48.836;10.092;2023-06-04T14:49:18;26.40;64.90
12957;DHT22;6543;48.836;10.092;2023-06-04T14:51:45;27.00;62.90
12957;DHT22;6543;48.836;10.092;2023-06-04T14:54:12;27.20;63.20
12957;DHT22;6543;48.836;10.092;2023-06-04T14:56:39;28.40;64.80
12957;DHT22;6543;48.836;10.092;2023-06-04T14:59:06;27.80;66.90
12957;DHT22;6543;48.836;10.092;2023-06-04T15:01:36;27.50;67.50
12957;DHT22;6543;48.836;10.092;2023-06-04T15:04:05;26.30;68.70
12957;DHT22;6543;48.836;10.092;2023-06-04T15:06:31;26.50;67.70
12957;DHT22;6543;48.836;10.092;2023-06-04T15:08:58;26.40;68.50
12957;DHT22;6543;48.836;10.092;2023-06-04T15:11:25;26.40;67.70
12957;DHT22;6543;48.836;10.092;2023-06-04T15:13:52;26.30;66.70
12957;DHT22;6543;48.836;10.092;2023-06-04T15:16:20;26.20;66.90
12957;DHT22;6543;48.836;10.092;2023-06-04T15:18:47;26.60;66.00
12957;DHT22;6543;48.836;10.092;2023-06-04T15:21:15;26.10;66.00
12957;DHT22;6543;48.836;10.092;2023-06-04T15:23:43;26.70;65.90
12957;DHT22;6543;48.836;10.092;2023-06-04T15:26:14;27.60;65.00
12957;DHT22;6543;48.836;10.092;2023-06-04T15:28:41;27.70;65.70
12957;DHT22;6543;48.836;10.092;2023-06-04T15:31:09;28.10;64.30
12957;DHT22;6543;48.836;10.092;2023-06-04T15:33:36;28.90;63.90
12957;DHT22;6543;48.836;10.092;2023-06-04T15:36:05;28.10;64.50